Cary, NC (27519)

7:38 AM EDT on September 05, 2015 (GMT -0400)
Pine Valley | | Change Station
CLOSE
Current Station
Personal Weather Station
Location: Cary, NC
Elevation: 486 ft
Nearby Weather Stations

Elev 486 ft 35.78 °N, 78.79 °W | Updated 10 seconds ago

Mostly Cloudy
Mostly Cloudy
70.0 °F
Feels Like 70.0 °F
N
0.0
Wind Variable Wind from WSW
Gusts 1.6 mph

Today
High -- | Low -- °F
--% Chance of Precip.
Yesterday
High -- | Low -- °F
Precip. -- in
6:49 AM 7:37 PM
Waning Gibbous, 49% visible
Pressure 30.11 in
Visibility 3.0 miles
Clouds Mostly Cloudy 300 ft
Dew Point 58 °F
Humidity 67%
Rainfall 0.00 in
Snow Depth Not available.
UV 0 out of 12
Pollen 8.60 out of 12
Air Quality Not available.
Flu Activity Not available.
METAR KRDU 051051Z 04006KT 3SM BR BKN003 21/20 A3012 RMK AO2 SLP195 T02110200
Pressure 30.11 in
Visibility 3.0 miles
Clouds Mostly Cloudy 300 ft
Dew Point 58 °F
Humidity 67%
Rainfall 0.00 in
Snow Depth Not available.
UV 0 out of 12
Pollen 8.60 out of 12
Air Quality Not available.
Flu Activity Not available.
METAR KRDU 051051Z 04006KT 3SM BR BKN003 21/20 A3012 RMK AO2 SLP195 T02110200

10-Day Weather Forecast

×

Almanac

Astronomy

Sep. 05, 2015 Rise Set
Actual Time
Civil Twilight
Nautical Twilight
Astronomical Twilight
Moon
Length of Visible Light
Length of Day
Tomorrow will be .
, % of the Moon is Illuminated

Today's Extremes

State Highs State Lows

Community

WunderPhotos

Upload Photos

1,852,449 photos uploaded!

WunderBlogs® & News

Nearby

Air Quality

  Air Quality AQ Index Pollutant
Not available.

Snow Depth

Station Depth Elevation

Earthquake Activity

City Distance Mag. Time & Date
Minimum magnitude displayed is 2.5.

Coastal Water Temperatures

Place Temperature

Stations

Nearby Weather Stations

Station Location Temp. Windchill Dew Point Humidity Wind Precip. Elev Updated Type